INFORMAÇÕES DO AERODROMO
Icao Aerodromo KPTB Nome do Aerodromo Dinwiddie County Airport Cidade Petersburg
Código GPS KPTB Elevação Média 193 ft Tipo de Aerodromo small_airport

INFORMAÇÃO DE PISTA
Pista 05 Comprimento da Pista 5001 ft Largura da Pista 100 ft
Elevação da Pista 193 ft Distância de Area de Escape da Pista 0 ft Orientação da Pista 43
Pista 23 Comprimento da Pista 5001 ft Largura da Pista 100 ft
Elevação da Pista 190 ft Distância de Area de Escape da Pista 0 ft Orientação da Pista 223
Pista 14 Comprimento da Pista 3061 ft Largura da Pista 50 ft
Elevação da Pista 186 ft Distância de Area de Escape da Pista 0 ft Orientação da Pista 133
Pista 32 Comprimento da Pista 3061 ft Largura da Pista 50 ft
Elevação da Pista 186 ft Distância de Area de Escape da Pista 0 ft Orientação da Pista 313

FREQUÊNCIAS DO AERODROMO
Tipo APP Nome POTOMAC AP Frequência 134.7 MHZ
Tipo AWOS Nome AWOS 3 Frequência 133.325 MHZ
Tipo DEP Nome POTOMAC DE Frequência 134.7 MHZ
Tipo UNIC Nome CTAF/UNICO Frequência 122.7 MHZ

INFORMAÇÕES DE NAVEGAÇÃO PRÓXIMO AO AERODROMO
Tipo NDB Nome Petersburg Frequência 284 KHZ

Informações de Meteorologia(METAR atual)
METAR DE KPTB
ADDS - METARS form results

(0856 UTC 24 September 2019)
Data provider http://aviationweather.gov/metar/data/
 
METAR text: KPTB 240855Z AUTO 26003KT 10SM OVC080 23/17 A2986 RMK AO2 T02250169
Conditions at: KPTB (PETERSBURG , VA, US) observed 0855 UTC 24 September 2019
Temperature: 22.5°C (72°F)
Dewpoint: 16.9°C (62°F) [RH = 71%]
Pressure (altimeter): 29.86 inches Hg (1011.3 mb)
Winds: from the W (260 degrees) at 3 MPH (3 knots; 1.5 m/s)
Visibility: 10 or more miles (16+ km)
Ceiling: 8000 feet AGL
Clouds: overcast cloud deck at 8000 feet AGL
Weather: automated observation with no human augmentation;
there may or may not be significant weather present at this time

METAR text: KPTB 240835Z AUTO 00000KT 10SM OVC075 22/17 A2985 RMK AO2 T02170174
Conditions at: KPTB (PETERSBURG , VA, US) observed 0835 UTC 24 September 2019
Temperature: 21.7°C (71°F)
Dewpoint: 17.4°C (63°F) [RH = 77%]
Pressure (altimeter): 29.85 inches Hg (1010.9 mb)
Winds: calm
Visibility: 10 or more miles (16+ km)
Ceiling: 7500 feet AGL
Clouds: overcast cloud deck at 7500 feet AGL
Weather: automated observation with no human augmentation;
there may or may not be significant weather present at this time

METAR text: KPTB 240815Z AUTO 00000KT 10SM OVC075 22/17 A2985 RMK AO2 T02200172
Conditions at: KPTB (PETERSBURG , VA, US) observed 0815 UTC 24 September 2019
Temperature: 22.0°C (72°F)
Dewpoint: 17.2°C (63°F) [RH = 74%]
Pressure (altimeter): 29.85 inches Hg (1010.9 mb)
Winds: calm
Visibility: 10 or more miles (16+ km)
Ceiling: 7500 feet AGL
Clouds: overcast cloud deck at 7500 feet AGL
Weather: automated observation with no human augmentation;
there may or may not be significant weather present at this time

MAPA DO AERODROMO


Desenvolvido por Virtual Airlines Manager




Modificado por Servidor Brasil Amigos